Hlavní strana
METAR-TAF:

METAR-TAF

Letiště :

Tanger, Maroko

zeměpisná šířka: 35-44N, zeměpisná délka: 005-54W, výška: 19 m

Aktuální stav počasí

Zpráva byla vytvořena před 26 minutami, v 12:00 UTC
Jihozápadní vítr 13 kt s nárazy do 24 kt, proměnlivý mezi jižním a západním
Teplota 22°C
Vlhkost vzduchu 78%
Tlak 1014 hPa
Viditelnost: 8000 m
Skoro jasno ve výšce 1300 ft
Oblačno až skoro zataženo ve výšce 3300 ft

METAR: GMTT 041200Z 22013G24KT 180V260 8000 FEW013 BKN033 22/18 Q1014 NOSIG

Čas: 13:26 (12:26 UTC)

Předpověď počasí

Zpráva byla vytvořena před 1 hodinou a 26 minutami, v 11:00 UTC
Předpověď platná od 04 v 12 UTC do 05 v 18 UTC
Jihozápadní vítr 16 kt
Viditelnost: 8000 m
Skoro jasno ve výšce 2000 ft
Oblačno až skoro zataženo ve výšce 4000 ft
Dočasný
od 04 v 12 UTC do 04 v 18 UTC
Jihojihozápadní vítr 17 kt s nárazy do 27 kt
Viditelnost: 3000 m
déšť

TAF: GMTT 041100Z 0412/0518 22016KT 8000 FEW020 BKN040 TEMPO 0412/0418 21017G27KT 3000 RA

Stav a předpovědi počasí z více než 4 000 letišť (zprávy METAR a TAF).

Červené a žluté tečky na mapě představují dostupné meteorologické stanice.

Když kurzor umístíte na tečku, zobrazí se název stanice.

Pak kliknutím zobrazíte stav a předpověď počasí.

Chcete-li změnit mapu, kliknutím na zelené tlačítko se znaménkem +mapu přiblížíte, kliknutím na zelené tlačítko se znaménkem – mapu oddálíte a kliknutím na zelené šipky přejdete na sousední mapy.


METAR-TAF: